Time;durP1;ratioP1;P1;durP2;ratioP2;P2;SDS_P1;SDS_P2;PMS_P1;PMS_P2;Temp;Humidity;BMP_temperature;BMP_pressure;BME280_temperature;BME280_humidity;BME280_pressure;Samples;Min_cycle;Max_cycle;Signal;HPM_P1;HPM_P2
2023/01/05 00:00:06;;;;;;;;;;;11.70;99.90;;;;;;5076728;28;19904;-72
2023/01/05 00:02:31;;;;;;;;;;;11.80;99.90;;;;;;5077025;28;20328;-71
2023/01/05 00:04:57;;;;;;;;;;;11.80;99.90;;;;;;5095562;28;19904;-71
2023/01/05 00:07:27;;;;;;;;;;;11.80;99.90;;;;;;5095057;28;20010;-71
2023/01/05 00:09:53;;;;;;;;;;;11.80;99.90;;;;;;5095337;28;19949;-71
2023/01/05 00:23:15;;;;;;;;;;;11.70;99.90;;;;;;5095316;28;19911;-72
2023/01/05 00:25:41;;;;;;;;;;;11.70;99.90;;;;;;5094604;28;19908;-71
2023/01/05 00:28:07;;;;;;;;;;;11.70;99.90;;;;;;5076375;28;19994;-71
2023/01/05 00:30:40;;;;;;;;;;;11.60;99.90;;;;;;5094434;28;19904;-71
2023/01/05 00:33:08;;;;;;;;;;;11.60;99.90;;;;;;5094669;28;19908;-72
2023/01/05 00:35:33;;;;;;;;;;;11.60;99.90;;;;;;5076568;28;19951;-69
2023/01/05 00:37:59;;;;;;;;;;;11.50;99.90;;;;;;5094886;28;20050;-72
2023/01/05 00:40:25;;;;;;;;;;;11.60;99.90;;;;;;5076366;28;19915;-71
2023/01/05 00:42:51;;;;;;;;;;;11.50;99.90;;;;;;5094434;28;19904;-72
2023/01/05 00:45:17;;;;;;;;;;;11.40;99.90;;;;;;5094541;28;19998;-72
2023/01/05 00:47:43;;;;;;;;;;;11.40;99.90;;;;;;5075852;28;20264;-71
2023/01/05 00:50:11;;;;;;;;;;;11.40;99.90;;;;;;5094176;28;19904;-71
2023/01/05 00:52:37;;;;;;;;;;;11.40;99.90;;;;;;5076057;28;19904;-71
2023/01/05 00:55:04;;;;;;;;;;;11.40;99.90;;;;;;5094201;28;20206;-72
2023/01/05 00:57:30;;;;;;;;;;;11.40;99.90;;;;;;5074985;28;19915;-72
2023/01/05 00:59:56;;;;;;;;;;;11.40;99.90;;;;;;5075726;28;19904;-71
2023/01/05 01:02:22;;;;;;;;;;;11.50;99.90;;;;;;5094140;28;19911;-71
2023/01/05 01:04:48;;;;;;;;;;;11.50;99.90;;;;;;5094153;28;20282;-72
2023/01/05 01:07:15;;;;;;;;;;;11.50;99.90;;;;;;5094076;28;19915;-73
2023/01/05 01:09:41;;;;;;;;;;;11.50;99.90;;;;;;5094129;28;20371;-72
2023/01/05 01:12:06;;;;;;;;;;;11.50;99.90;;;;;;5093919;28;19908;-73
2023/01/05 01:14:33;;;;;;;;;;;11.60;99.90;;;;;;5093928;28;20648;-72
2023/01/05 01:16:59;;;;;;;;;;;11.60;99.90;;;;;;5094256;28;19904;-71
2023/01/05 01:19:27;;;;;;;;;;;11.60;99.90;;;;;;5093724;28;19910;-71
2023/01/05 01:21:53;;;;;;;;;;;11.60;99.90;;;;;;5093737;28;19961;-71
2023/01/05 01:24:21;;;;;;;;;;;11.50;99.90;;;;;;5075464;28;19947;-71
2023/01/05 01:26:46;;;;;;;;;;;11.50;99.90;;;;;;5093588;28;20429;-72
2023/01/05 01:29:12;;;;;;;;;;;11.40;99.90;;;;;;5093655;28;20335;-71
2023/01/05 01:31:38;;;;;;;;;;;11.30;99.90;;;;;;5093313;28;20082;-72
2023/01/05 01:34:05;;;;;;;;;;;11.20;99.90;;;;;;5075261;28;19957;-71
2023/01/05 01:36:31;;;;;;;;;;;11.20;99.90;;;;;;5094087;28;19904;-73
2023/01/05 01:38:57;;;;;;;;;;;11.20;99.90;;;;;;5093272;28;19914;-72
2023/01/05 01:41:23;;;;;;;;;;;11.20;99.90;;;;;;5093246;28;19911;-71
2023/01/05 01:43:50;;;;;;;;;;;11.20;99.90;;;;;;5093356;28;19999;-71
2023/01/05 01:46:17;;;;;;;;;;;11.20;99.90;;;;;;5093222;28;19904;-72
2023/01/05 01:48:45;;;;;;;;;;;11.20;99.90;;;;;;5093048;28;20011;-71
2023/01/05 01:51:20;;;;;;;;;;;11.10;99.90;;;;;;5075322;28;19904;-72
2023/01/05 01:53:48;;;;;;;;;;;11.10;99.90;;;;;;5093270;28;20275;-71
2023/01/05 01:56:16;;;;;;;;;;;11.00;99.90;;;;;;5093372;28;19915;-71
2023/01/05 01:58:42;;;;;;;;;;;10.90;99.90;;;;;;5093258;28;19927;-72
2023/01/05 02:01:08;;;;;;;;;;;10.90;99.90;;;;;;5092776;28;20376;-70
2023/01/05 02:03:33;;;;;;;;;;;10.80;99.90;;;;;;5092841;28;19923;-70
2023/01/05 02:06:02;;;;;;;;;;;10.80;99.90;;;;;;5074600;28;19954;-72
2023/01/05 02:08:31;;;;;;;;;;;10.80;99.90;;;;;;5092721;28;20351;-71
2023/01/05 02:10:56;;;;;;;;;;;10.80;99.90;;;;;;5074432;28;20324;-72
2023/01/05 02:13:41;;;;;;;;;;;10.80;99.90;;;;;;5074427;28;19904;-71
2023/01/05 02:16:19;;;;;;;;;;;10.80;99.90;;;;;;5092657;28;19904;-71
2023/01/05 02:19:10;;;;;;;;;;;10.80;99.90;;;;;;5093199;28;19904;-71
2023/01/05 02:21:57;;;;;;;;;;;10.80;99.90;;;;;;5070138;28;19904;-71
2023/01/05 02:24:46;;;;;;;;;;;10.80;99.90;;;;;;5092988;28;19904;-71
2023/01/05 02:27:12;;;;;;;;;;;10.80;99.90;;;;;;5079101;28;19912;-71
2023/01/05 02:29:50;;;;;;;;;;;10.80;99.90;;;;;;5092734;28;19911;-71
2023/01/05 02:32:21;;;;;;;;;;;10.80;99.90;;;;;;5092925;28;20001;-72
2023/01/05 02:35:01;;;;;;;;;;;10.70;99.90;;;;;;5092433;28;20311;-71
2023/01/05 02:37:45;;;;;;;;;;;10.70;99.90;;;;;;5092526;28;20051;-70
2023/01/05 02:40:33;;;;;;;;;;;10.70;99.90;;;;;;5092192;28;19983;-70
2023/01/05 02:43:00;;;;;;;;;;;10.70;99.90;;;;;;5092058;28;19908;-70
2023/01/05 02:45:26;;;;;;;;;;;10.70;99.90;;;;;;5092202;28;19911;-71
2023/01/05 02:47:53;;;;;;;;;;;10.70;99.90;;;;;;5073609;28;19912;-70
2023/01/05 02:50:23;;;;;;;;;;;10.70;99.90;;;;;;5073893;28;19927;-72
2023/01/05 02:52:54;;;;;;;;;;;10.70;99.90;;;;;;5092374;28;19983;-66
2023/01/05 02:55:23;;;;;;;;;;;10.60;99.90;;;;;;5091653;28;19984;-71
2023/01/05 02:57:55;;;;;;;;;;;10.60;99.90;;;;;;5092136;28;20354;-70
2023/01/05 03:00:38;;;;;;;;;;;10.60;99.90;;;;;;5091968;28;19955;-72
2023/01/05 03:03:07;;;;;;;;;;;10.60;99.90;;;;;;5072132;28;19965;-71
2023/01/05 03:05:37;;;;;;;;;;;10.50;99.90;;;;;;5053604;28;19912;-70
2023/01/05 03:08:06;;;;;;;;;;;10.50;99.90;;;;;;5071558;28;20011;-71
2023/01/05 03:13:41;;;;;;;;;;;10.40;99.90;;;;;;5091852;28;20310;-70
2023/01/05 03:16:08;;;;;;;;;;;10.30;99.90;;;;;;5091079;28;19915;-72
2023/01/05 03:19:34;;;;;;;;;;;10.30;99.90;;;;;;5091621;28;20272;-66
2023/01/05 03:21:21;;;;;;;;;;;10.30;99.90;;;;;;5091119;28;20272;-71
2023/01/05 03:38:19;;;;;;;;;;;10.50;99.90;;;;;;5091389;28;20374;-71
2023/01/05 03:40:46;;;;;;;;;;;10.60;99.90;;;;;;5069170;28;19905;-71
2023/01/05 03:43:12;;;;;;;;;;;10.60;99.90;;;;;;5091218;28;20362;-71
2023/01/05 03:45:40;;;;;;;;;;;10.70;99.90;;;;;;5090883;28;19904;-71
2023/01/05 03:48:06;;;;;;;;;;;10.70;99.90;;;;;;5091384;28;19977;-73
2023/01/05 03:50:33;;;;;;;;;;;10.70;99.90;;;;;;5090344;28;19957;-70
2023/01/05 03:52:59;;;;;;;;;;;10.70;99.90;;;;;;5091257;28;19904;-71
2023/01/05 03:55:24;;;;;;;;;;;10.70;99.90;;;;;;5088793;28;19928;-71
2023/01/05 03:57:50;;;;;;;;;;;10.70;99.90;;;;;;5091429;28;19915;-71
2023/01/05 04:00:18;;;;;;;;;;;10.70;99.90;;;;;;5091838;28;19904;-71
2023/01/05 04:02:43;;;;;;;;;;;10.70;99.90;;;;;;5091689;28;19911;-71
2023/01/05 04:05:09;;;;;;;;;;;10.70;99.90;;;;;;5091559;28;19904;-71
2023/01/05 04:07:35;;;;;;;;;;;10.70;99.90;;;;;;5091866;28;19919;-70
2023/01/05 04:10:02;;;;;;;;;;;10.70;99.90;;;;;;5091941;28;19961;-70
2023/01/05 04:12:28;;;;;;;;;;;10.70;99.90;;;;;;5073316;28;19991;-71
2023/01/05 04:14:54;;;;;;;;;;;10.70;99.90;;;;;;5091550;28;20380;-71
2023/01/05 04:17:21;;;;;;;;;;;10.70;99.90;;;;;;5091459;28;19912;-70
2023/01/05 04:19:46;;;;;;;;;;;10.70;99.90;;;;;;5091793;28;19927;-71
2023/01/05 04:22:12;;;;;;;;;;;10.70;99.90;;;;;;5091592;28;19904;-71
2023/01/05 04:24:38;;;;;;;;;;;10.70;99.90;;;;;;5092240;28;19911;-70
2023/01/05 04:27:05;;;;;;;;;;;10.60;99.90;;;;;;5091918;28;20378;-71
2023/01/05 04:29:31;;;;;;;;;;;10.60;99.90;;;;;;5092411;28;19912;-69
2023/01/05 04:31:56;;;;;;;;;;;10.60;99.90;;;;;;5091917;28;20007;-71
2023/01/05 04:34:23;;;;;;;;;;;10.60;99.90;;;;;;5077927;28;19911;-72
2023/01/05 04:36:49;;;;;;;;;;;10.50;99.90;;;;;;5095751;28;19908;-71
2023/01/05 04:39:15;;;;;;;;;;;10.50;99.90;;;;;;5096008;28;19908;-71
2023/01/05 04:41:41;;;;;;;;;;;10.50;99.90;;;;;;5095530;28;19934;-70
2023/01/05 04:44:07;;;;;;;;;;;10.50;99.90;;;;;;5095468;28;20366;-71
2023/01/05 04:46:32;;;;;;;;;;;10.50;99.90;;;;;;5095311;28;19959;-71
2023/01/05 04:48:58;;;;;;;;;;;10.50;99.90;;;;;;5095589;28;19912;-71
2023/01/05 04:51:24;;;;;;;;;;;10.40;99.90;;;;;;5095603;28;19904;-71
2023/01/05 04:53:52;;;;;;;;;;;10.40;99.90;;;;;;5094979;28;20015;-71
2023/01/05 04:56:18;;;;;;;;;;;10.40;99.90;;;;;;5095092;28;19908;-71
2023/01/05 04:58:43;;;;;;;;;;;10.40;99.90;;;;;;5076685;28;20271;-71
2023/01/05 05:01:09;;;;;;;;;;;10.40;99.90;;;;;;5088660;28;19951;-70
2023/01/05 05:03:36;;;;;;;;;;;10.40;99.90;;;;;;5075106;28;20407;-71
2023/01/05 05:06:01;;;;;;;;;;;10.40;99.90;;;;;;5056514;28;19908;-69
2023/01/05 05:08:28;;;;;;;;;;;10.40;99.90;;;;;;5074410;28;20249;-70
2023/01/05 05:10:55;;;;;;;;;;;10.40;99.90;;;;;;5083407;28;19904;-70
2023/01/05 05:13:21;;;;;;;;;;;10.30;99.90;;;;;;5094770;28;19914;-70
2023/01/05 05:15:47;;;;;;;;;;;10.30;99.90;;;;;;5094659;28;19904;-71
2023/01/05 05:18:13;;;;;;;;;;;10.20;99.90;;;;;;5094730;28;19904;-70
2023/01/05 05:20:42;;;;;;;;;;;10.10;99.90;;;;;;5094762;28;19911;-67
2023/01/05 05:23:09;;;;;;;;;;;10.20;99.90;;;;;;5094749;28;19920;-70
2023/01/05 05:25:34;;;;;;;;;;;10.20;99.90;;;;;;5094688;28;19938;-69
2023/01/05 05:28:00;;;;;;;;;;;10.20;99.90;;;;;;5076343;28;19980;-70
2023/01/05 05:30:26;;;;;;;;;;;10.20;99.90;;;;;;5076326;28;20393;-68
2023/01/05 05:32:52;;;;;;;;;;;10.20;99.90;;;;;;5074229;28;20281;-70
2023/01/05 05:35:18;;;;;;;;;;;10.20;99.90;;;;;;5074279;28;19905;-69
2023/01/05 05:37:44;;;;;;;;;;;10.30;99.90;;;;;;5087755;28;19930;-71
2023/01/05 05:40:10;;;;;;;;;;;10.30;99.90;;;;;;5095225;28;19917;-70
2023/01/05 05:42:36;;;;;;;;;;;10.30;99.90;;;;;;5094383;28;20310;-68
2023/01/05 05:45:02;;;;;;;;;;;10.30;99.90;;;;;;5094045;28;19904;-70
2023/01/05 05:47:28;;;;;;;;;;;10.30;99.90;;;;;;5094447;28;19912;-71
2023/01/05 05:49:54;;;;;;;;;;;10.30;99.90;;;;;;5094357;28;19904;-70
2023/01/05 05:52:19;;;;;;;;;;;10.30;99.90;;;;;;5093935;28;19908;-70
2023/01/05 05:54:45;;;;;;;;;;;10.30;99.90;;;;;;5094027;28;19958;-71
2023/01/05 05:57:11;;;;;;;;;;;10.30;99.90;;;;;;5094178;28;20003;-70
2023/01/05 05:59:37;;;;;;;;;;;10.30;99.90;;;;;;5094177;28;19904;-71
2023/01/05 06:02:03;;;;;;;;;;;10.30;99.90;;;;;;5075695;28;19931;-70
2023/01/05 06:04:30;;;;;;;;;;;10.30;99.90;;;;;;5094046;28;19911;-70
2023/01/05 06:06:56;;;;;;;;;;;10.20;99.90;;;;;;5093780;28;20379;-70
2023/01/05 06:09:23;;;;;;;;;;;10.20;99.90;;;;;;5093911;28;19919;-71
2023/01/05 06:11:51;;;;;;;;;;;10.20;99.90;;;;;;5075650;28;19918;-71
2023/01/05 06:14:17;;;;;;;;;;;10.30;99.90;;;;;;5093850;28;20041;-70
2023/01/05 06:16:44;;;;;;;;;;;10.30;99.90;;;;;;5093680;28;20326;-71
2023/01/05 06:19:10;;;;;;;;;;;10.20;99.90;;;;;;5094610;28;19958;-71
2023/01/05 06:21:36;;;;;;;;;;;10.20;99.90;;;;;;5094604;28;19904;-72
2023/01/05 06:24:03;;;;;;;;;;;10.20;99.90;;;;;;5093947;28;20343;-71
2023/01/05 06:26:28;;;;;;;;;;;10.20;99.90;;;;;;5094830;28;19950;-71
2023/01/05 06:28:54;;;;;;;;;;;10.30;99.90;;;;;;5093622;28;19919;-72
2023/01/05 06:31:20;;;;;;;;;;;10.30;99.90;;;;;;5074318;28;19904;-72
2023/01/05 06:33:46;;;;;;;;;;;10.30;99.90;;;;;;5093335;28;20287;-72
2023/01/05 06:36:13;;;;;;;;;;;10.40;99.90;;;;;;5093476;28;19908;-71
2023/01/05 06:38:39;;;;;;;;;;;10.50;99.90;;;;;;5093520;28;20002;-71
2023/01/05 06:41:04;;;;;;;;;;;10.60;99.90;;;;;;5093509;28;20336;-72
2023/01/05 06:43:30;;;;;;;;;;;10.80;99.90;;;;;;5093447;28;19904;-73
2023/01/05 06:46:00;;;;;;;;;;;10.90;99.90;;;;;;5092094;28;19908;-71
2023/01/05 06:48:27;;;;;;;;;;;11.00;99.90;;;;;;5092900;28;19974;-71
2023/01/05 06:50:55;;;;;;;;;;;11.20;99.90;;;;;;5092806;28;19915;-71
2023/01/05 06:53:20;;;;;;;;;;;11.30;99.90;;;;;;5092671;28;19964;-72
2023/01/05 06:55:46;;;;;;;;;;;11.40;99.90;;;;;;5092308;28;20080;-70
2023/01/05 06:58:12;;;;;;;;;;;11.60;99.90;;;;;;5092572;28;19908;-72
2023/01/05 07:00:38;;;;;;;;;;;11.70;99.90;;;;;;5074106;28;19904;-71
2023/01/05 07:03:05;;;;;;;;;;;11.80;99.90;;;;;;5057475;28;20245;-71
2023/01/05 07:05:31;;;;;;;;;;;11.90;99.90;;;;;;5092540;28;19943;-71
2023/01/05 07:07:56;;;;;;;;;;;12.00;99.90;;;;;;5092414;28;19958;-72
2023/01/05 07:10:24;;;;;;;;;;;12.10;99.90;;;;;;5092448;28;19904;-72
2023/01/05 07:12:49;;;;;;;;;;;12.40;99.90;;;;;;5092817;28;19904;-71
2023/01/05 07:15:15;;;;;;;;;;;12.60;99.90;;;;;;5092198;28;20358;-72
2023/01/05 07:17:41;;;;;;;;;;;12.50;99.90;;;;;;5093625;28;19912;-73
2023/01/05 07:20:07;;;;;;;;;;;12.70;99.90;;;;;;5093190;28;19904;-71
2023/01/05 07:22:34;;;;;;;;;;;12.80;99.90;;;;;;5093174;28;19904;-71
2023/01/05 07:25:00;;;;;;;;;;;12.70;99.90;;;;;;5093095;28;19904;-71
2023/01/05 07:27:27;;;;;;;;;;;12.80;99.90;;;;;;5092987;28;19953;-71
2023/01/05 07:29:53;;;;;;;;;;;12.90;99.90;;;;;;5092939;28;20263;-71
2023/01/05 07:32:18;;;;;;;;;;;13.10;99.90;;;;;;5086034;28;19998;-71
2023/01/05 07:34:44;;;;;;;;;;;13.20;99.90;;;;;;5073401;28;19905;-70
2023/01/05 07:37:10;;;;;;;;;;;13.40;99.90;;;;;;5072788;28;19905;-71
2023/01/05 07:39:39;;;;;;;;;;;13.50;99.90;;;;;;5072308;28;19908;-71
2023/01/05 07:42:05;;;;;;;;;;;13.60;99.90;;;;;;5091817;28;19911;-71
2023/01/05 07:44:31;;;;;;;;;;;13.70;99.90;;;;;;5092981;28;19911;-71
2023/01/05 07:46:57;;;;;;;;;;;13.70;99.90;;;;;;5092567;28;19990;-71
2023/01/05 07:49:23;;;;;;;;;;;13.40;99.90;;;;;;5092732;28;19908;-70
2023/01/05 07:51:49;;;;;;;;;;;13.10;99.90;;;;;;5093284;28;19904;-71
2023/01/05 07:54:15;;;;;;;;;;;13.00;99.90;;;;;;5092764;28;19923;-67
2023/01/05 07:56:41;;;;;;;;;;;12.90;99.90;;;;;;5093043;28;19904;-72
2023/01/05 07:59:06;;;;;;;;;;;12.90;99.90;;;;;;5092829;28;19908;-70
2023/01/05 08:01:32;;;;;;;;;;;12.90;99.90;;;;;;5083467;28;19904;-71
2023/01/05 08:03:58;;;;;;;;;;;13.00;99.90;;;;;;5072738;28;20349;-71
2023/01/05 08:06:24;;;;;;;;;;;12.80;99.90;;;;;;5072808;28;19904;-71
2023/01/05 08:08:50;;;;;;;;;;;12.60;99.90;;;;;;5076264;28;19920;-70
2023/01/05 08:11:17;;;;;;;;;;;12.60;99.90;;;;;;5088090;28;19904;-73
2023/01/05 08:13:58;;;;;;;;;;;12.60;99.90;;;;;;5096441;28;19955;-71
2023/01/05 08:16:26;;;;;;;;;;;12.80;99.90;;;;;;5078156;28;19912;-71
2023/01/05 08:18:52;;;;;;;;;;;13.00;99.90;;;;;;5096887;28;19908;-70
2023/01/05 08:21:18;;;;;;;;;;;13.00;99.90;;;;;;5096479;28;20024;-71
2023/01/05 08:23:49;;;;;;;;;;;13.10;99.90;;;;;;5078056;28;19911;-72
2023/01/05 08:26:17;;;;;;;;;;;13.40;99.90;;;;;;5071432;28;19916;-71
2023/01/05 08:28:44;;;;;;;;;;;13.60;99.90;;;;;;5096147;28;19912;-72
2023/01/05 08:31:11;;;;;;;;;;;13.80;99.90;;;;;;5077671;28;19992;-71
2023/01/05 08:33:37;;;;;;;;;;;13.90;99.90;;;;;;5096098;28;19965;-71
2023/01/05 08:36:07;;;;;;;;;;;14.20;99.90;;;;;;5096440;28;19904;-71
2023/01/05 08:38:33;;;;;;;;;;;14.30;99.90;;;;;;5078126;28;20374;-71
2023/01/05 08:40:59;;;;;;;;;;;14.40;99.90;;;;;;5078730;28;19904;-71
2023/01/05 08:43:25;;;;;;;;;;;14.40;99.90;;;;;;5096443;28;19999;-70
2023/01/05 08:45:51;;;;;;;;;;;14.20;99.90;;;;;;5077712;28;19944;-71
2023/01/05 08:48:17;;;;;;;;;;;14.30;99.90;;;;;;5077927;28;19962;-71
2023/01/05 08:50:42;;;;;;;;;;;14.50;99.90;;;;;;5096039;28;19904;-71
2023/01/05 08:53:08;;;;;;;;;;;14.60;99.90;;;;;;5077258;28;19911;-70
2023/01/05 08:55:34;;;;;;;;;;;14.60;99.90;;;;;;5095543;28;20279;-66
2023/01/05 08:58:00;;;;;;;;;;;14.70;99.90;;;;;;5076793;28;19943;-70
2023/01/05 09:00:26;;;;;;;;;;;14.60;99.90;;;;;;5095205;28;19957;-69
2023/01/05 09:02:52;;;;;;;;;;;14.70;99.90;;;;;;5094931;28;20015;-70
2023/01/05 09:05:18;;;;;;;;;;;14.70;99.90;;;;;;5095160;28;19950;-70
2023/01/05 09:07:44;;;;;;;;;;;14.70;99.90;;;;;;5095306;28;20010;-70
2023/01/05 09:10:10;;;;;;;;;;;14.70;99.90;;;;;;5094959;28;20378;-70
2023/01/05 09:12:37;;;;;;;;;;;14.80;99.90;;;;;;5095034;28;19995;-70
2023/01/05 09:15:04;;;;;;;;;;;14.70;99.90;;;;;;5076751;28;20003;-70
2023/01/05 09:17:30;;;;;;;;;;;14.90;99.90;;;;;;5076549;28;20295;-70
2023/01/05 09:19:56;;;;;;;;;;;14.60;99.90;;;;;;5094956;28;19904;-72
2023/01/05 09:22:22;;;;;;;;;;;14.60;99.90;;;;;;5094972;28;19912;-70
2023/01/05 09:24:47;;;;;;;;;;;14.60;99.90;;;;;;5095507;28;19904;-70
2023/01/05 09:27:13;;;;;;;;;;;14.80;99.90;;;;;;5094923;28;19958;-71
2023/01/05 09:29:39;;;;;;;;;;;14.80;99.90;;;;;;5095384;28;19954;-73
2023/01/05 09:32:05;;;;;;;;;;;15.10;99.90;;;;;;5095135;28;19904;-70
2023/01/05 09:34:31;;;;;;;;;;;15.30;99.90;;;;;;5094979;28;19912;-70
2023/01/05 09:36:57;;;;;;;;;;;15.40;99.90;;;;;;5094810;28;19904;-68
2023/01/05 09:39:23;;;;;;;;;;;15.50;99.90;;;;;;5094806;28;19965;-70
2023/01/05 09:41:51;;;;;;;;;;;15.50;99.90;;;;;;5094697;28;20420;-73
2023/01/05 09:44:26;;;;;;;;;;;15.60;99.90;;;;;;5076558;28;19904;-71
2023/01/05 09:46:53;;;;;;;;;;;15.40;99.90;;;;;;5094799;28;19908;-69
2023/01/05 09:49:20;;;;;;;;;;;15.20;99.90;;;;;;5094574;28;19919;-70
2023/01/05 09:51:47;;;;;;;;;;;15.30;99.90;;;;;;5094123;28;19911;-70
2023/01/05 09:54:16;;;;;;;;;;;15.70;99.90;;;;;;5094244;28;19923;-70
2023/01/05 09:56:44;;;;;;;;;;;15.80;99.90;;;;;;5094752;28;19919;-69
2023/01/05 09:59:17;;;;;;;;;;;16.00;99.90;;;;;;5094074;28;20363;-70
2023/01/05 10:01:43;;;;;;;;;;;16.30;99.90;;;;;;5094160;28;19954;-69
2023/01/05 10:04:15;;;;;;;;;;;16.50;99.90;;;;;;5093843;28;19907;-70
2023/01/05 10:06:42;;;;;;;;;;;16.20;99.90;;;;;;5093841;28;20335;-70
2023/01/05 10:09:12;;;;;;;;;;;16.10;99.90;;;;;;5093397;28;19964;-70
2023/01/05 10:14:30;;;;;;;;;;;16.40;99.90;;;;;;5093737;28;20319;-70
2023/01/05 10:16:56;;;;;;;;;;;16.30;99.90;;;;;;5093724;28;19958;-70
2023/01/05 10:19:22;;;;;;;;;;;16.40;99.90;;;;;;5093969;28;19955;-71
2023/01/05 10:22:02;;;;;;;;;;;16.40;99.90;;;;;;5093798;28;19904;-72
2023/01/05 10:24:37;;;;;;;;;;;16.40;99.90;;;;;;5094032;28;20390;-71
2023/01/05 10:27:23;;;;;;;;;;;16.30;99.90;;;;;;5093746;28;20360;-69
2023/01/05 10:29:53;;;;;;;;;;;16.40;99.90;;;;;;5093416;28;20003;-70
2023/01/05 10:32:24;;;;;;;;;;;16.40;99.90;;;;;;5093013;28;19904;-69
2023/01/05 10:35:03;;;;;;;;;;;16.20;99.90;;;;;;5075154;28;20003;-71
2023/01/05 10:37:40;;;;;;;;;;;16.20;99.90;;;;;;5093506;28;19911;-71
2023/01/05 10:40:17;;;;;;;;;;;16.30;99.90;;;;;;5093674;28;20355;-71
2023/01/05 10:42:44;;;;;;;;;;;16.50;99.90;;;;;;5093375;28;19904;-71
2023/01/05 10:45:17;;;;;;;;;;;16.40;99.90;;;;;;5093456;28;19939;-71
2023/01/05 10:47:44;;;;;;;;;;;16.50;99.90;;;;;;5093451;28;19911;-71
2023/01/05 10:50:30;;;;;;;;;;;16.60;99.90;;;;;;5093601;28;19908;-71
2023/01/05 10:52:57;;;;;;;;;;;16.70;99.90;;;;;;5093041;28;19904;-71
2023/01/05 10:55:24;;;;;;;;;;;16.70;99.90;;;;;;5075015;28;19920;-71
2023/01/05 10:57:49;;;;;;;;;;;16.80;99.90;;;;;;5093537;28;19904;-72
2023/01/05 11:00:19;;;;;;;;;;;16.90;99.90;;;;;;5092942;28;19911;-70
2023/01/05 11:02:49;;;;;;;;;;;16.70;99.90;;;;;;5092746;28;19905;-71
2023/01/05 11:05:24;;;;;;;;;;;16.60;99.90;;;;;;5074859;28;19904;-71
2023/01/05 11:07:51;;;;;;;;;;;16.80;99.90;;;;;;5093174;28;19912;-70
2023/01/05 11:10:20;;;;;;;;;;;16.70;99.90;;;;;;5093092;28;20005;-71
2023/01/05 11:12:50;;;;;;;;;;;16.60;99.90;;;;;;5092921;28;19959;-71
2023/01/05 11:15:18;;;;;;;;;;;16.50;99.90;;;;;;5093121;28;19911;-71
2023/01/05 11:17:44;;;;;;;;;;;16.30;99.90;;;;;;5093169;28;19926;-71
2023/01/05 11:20:14;;;;;;;;;;;16.60;99.90;;;;;;5093701;28;20085;-71
2023/01/05 11:22:42;;;;;;;;;;;16.40;99.90;;;;;;5093694;28;19904;-70
2023/01/05 11:25:20;;;;;;;;;;;16.40;99.90;;;;;;5074978;28;19904;-71
2023/01/05 11:27:46;;;;;;;;;;;16.10;99.90;;;;;;5093019;28;19912;-71
2023/01/05 11:30:23;;;;;;;;;;;16.30;99.90;;;;;;5093305;28;20041;-71
2023/01/05 11:32:49;;;;;;;;;;;16.20;99.90;;;;;;5074664;28;19912;-71
2023/01/05 11:35:27;;;;;;;;;;;16.10;99.90;;;;;;5075717;28;20267;-71
2023/01/05 11:37:54;;;;;;;;;;;16.30;99.90;;;;;;5093266;28;19907;-71
2023/01/05 11:40:22;;;;;;;;;;;16.60;99.90;;;;;;5093327;28;19911;-71
2023/01/05 11:42:50;;;;;;;;;;;16.80;99.90;;;;;;5095607;28;20371;-67
2023/01/05 11:45:20;;;;;;;;;;;17.10;99.90;;;;;;5097121;28;19904;-71
2023/01/05 11:47:48;;;;;;;;;;;17.30;99.90;;;;;;5096555;28;20018;-71
2023/01/05 11:50:15;;;;;;;;;;;17.50;99.90;;;;;;5097086;28;19983;-71
2023/01/05 11:52:43;;;;;;;;;;;17.80;99.90;;;;;;5096623;28;19904;-72
2023/01/05 11:55:28;;;;;;;;;;;18.00;99.90;;;;;;5096707;28;19998;-75
2023/01/05 11:57:58;;;;;;;;;;;17.60;99.90;;;;;;5078690;28;19910;-75
2023/01/05 12:00:35;;;;;;;;;;;17.00;99.90;;;;;;5096866;28;20356;-76
2023/01/05 12:03:08;;;;;;;;;;;16.80;99.90;;;;;;5076673;28;19904;-76
2023/01/05 12:05:41;;;;;;;;;;;16.80;99.90;;;;;;5076994;28;19931;-72
2023/01/05 12:08:11;;;;;;;;;;;17.10;99.90;;;;;;5076327;28;19913;-75
2023/01/05 12:10:43;;;;;;;;;;;17.40;99.90;;;;;;5064936;28;19904;-76
2023/01/05 12:13:32;;;;;;;;;;;17.60;99.90;;;;;;5097123;28;19911;-75
2023/01/05 12:16:13;;;;;;;;;;;17.70;99.90;;;;;;5084873;28;19931;-76
2023/01/05 12:18:51;;;;;;;;;;;17.90;99.90;;;;;;5096758;28;19998;-77
2023/01/05 12:21:24;;;;;;;;;;;17.80;99.90;;;;;;5096759;28;20326;-76
2023/01/05 12:23:54;;;;;;;;;;;17.70;99.90;;;;;;5096638;28;19904;-75
2023/01/05 12:26:21;;;;;;;;;;;17.80;99.90;;;;;;5097048;28;19904;-74
2023/01/05 12:29:06;;;;;;;;;;;18.10;99.90;;;;;;5078159;28;19916;-76
2023/01/05 12:31:33;;;;;;;;;;;18.20;99.90;;;;;;5096750;28;19904;-72
2023/01/05 12:34:18;;;;;;;;;;;18.30;99.90;;;;;;5096494;28;20010;-76
2023/01/05 12:37:06;;;;;;;;;;;18.30;99.90;;;;;;5078405;28;19911;-74
2023/01/05 12:39:50;;;;;;;;;;;18.40;99.90;;;;;;5097066;28;20344;-78
2023/01/05 12:42:28;;;;;;;;;;;18.40;99.90;;;;;;5058200;28;19904;-78
2023/01/05 12:44:55;;;;;;;;;;;18.40;99.90;;;;;;5076520;28;19904;-77
2023/01/05 12:47:27;;;;;;;;;;;18.60;99.90;;;;;;5075823;28;19955;-77
2023/01/05 12:49:59;;;;;;;;;;;18.60;99.90;;;;;;5076002;28;19979;-76
2023/01/05 12:52:48;;;;;;;;;;;18.60;99.90;;;;;;5075831;28;19904;-77
2023/01/05 12:55:18;;;;;;;;;;;18.60;99.90;;;;;;5074729;28;19916;-76
2023/01/05 12:58:04;;;;;;;;;;;18.50;99.90;;;;;;5075613;28;20310;-74
2023/01/05 13:00:34;;;;;;;;;;;18.60;99.90;;;;;;5075618;28;19966;-73
2023/01/05 13:03:01;;;;;;;;;;;18.40;99.90;;;;;;5095670;28;19916;-74
2023/01/05 13:05:27;;;;;;;;;;;18.30;99.90;;;;;;5095662;28;19919;-74
2023/01/05 13:07:55;;;;;;;;;;;18.40;99.90;;;;;;5095687;28;20033;-69
2023/01/05 13:10:22;;;;;;;;;;;18.40;99.90;;;;;;5095953;28;19904;-68
2023/01/05 13:12:52;;;;;;;;;;;18.50;99.90;;;;;;5095762;28;19911;-73
2023/01/05 13:15:23;;;;;;;;;;;18.30;99.90;;;;;;5095733;28;19911;-74
2023/01/05 13:17:52;;;;;;;;;;;18.40;99.90;;;;;;5096058;28;19904;-73
2023/01/05 13:20:25;;;;;;;;;;;18.30;99.90;;;;;;5095763;28;20402;-74
2023/01/05 13:22:54;;;;;;;;;;;18.50;99.90;;;;;;5096206;28;20370;-74
2023/01/05 13:25:24;;;;;;;;;;;18.50;99.90;;;;;;5095802;28;19915;-74
2023/01/05 13:27:50;;;;;;;;;;;18.30;99.90;;;;;;5095674;28;19915;-73
2023/01/05 13:30:22;;;;;;;;;;;18.30;99.90;;;;;;5094782;28;20433;-73
2023/01/05 13:32:50;;;;;;;;;;;18.40;99.90;;;;;;5095313;28;19957;-73
2023/01/05 13:35:25;;;;;;;;;;;18.40;99.90;;;;;;5077354;28;20457;-73
2023/01/05 13:37:54;;;;;;;;;;;18.50;99.90;;;;;;5095242;28;20267;-72
2023/01/05 13:40:38;;;;;;;;;;;18.70;99.90;;;;;;5077019;28;19903;-69
2023/01/05 13:43:26;;;;;;;;;;;18.60;99.90;;;;;;5095582;28;20273;-72
2023/01/05 13:46:03;;;;;;;;;;;18.70;99.90;;;;;;5095271;28;19904;-73
2023/01/05 13:48:29;;;;;;;;;;;18.70;99.90;;;;;;5095053;28;19912;-73
2023/01/05 13:51:06;;;;;;;;;;;18.90;99.90;;;;;;5095125;28;19914;-73
2023/01/05 13:53:36;;;;;;;;;;;18.90;99.90;;;;;;5094624;28;19911;-73
2023/01/05 13:56:04;;;;;;;;;;;18.80;99.90;;;;;;5095060;28;20423;-72
2023/01/05 13:58:48;;;;;;;;;;;18.90;99.90;;;;;;5094819;28;19904;-71
2023/01/05 14:01:19;;;;;;;;;;;18.90;99.90;;;;;;5094780;28;20397;-73
2023/01/05 14:03:55;;;;;;;;;;;18.80;99.90;;;;;;5094410;28;19983;-72
2023/01/05 14:06:24;;;;;;;;;;;18.80;99.90;;;;;;5094737;28;19949;-72
2023/01/05 14:08:56;;;;;;;;;;;18.70;99.90;;;;;;5094188;28;19982;-70
2023/01/05 14:12:02;;;;;;;;;;;18.80;99.90;;;;;;5101124;28;19919;-72
2023/01/05 14:14:27;;;;;;;;;;;18.60;99.90;;;;;;5083466;28;19930;-74
2023/01/05 14:16:54;;;;;;;;;;;18.50;99.90;;;;;;5072424;28;19912;-72
2023/01/05 14:19:20;;;;;;;;;;;18.40;99.90;;;;;;5055963;28;20011;-73
2023/01/05 14:21:52;;;;;;;;;;;18.40;99.90;;;;;;5074061;28;19989;-70
2023/01/05 14:24:27;;;;;;;;;;;18.40;99.90;;;;;;5073990;28;19904;-73
2023/01/05 14:27:07;;;;;;;;;;;18.60;99.90;;;;;;5075031;28;19908;-72
2023/01/05 14:29:48;;;;;;;;;;;18.60;99.90;;;;;;5056060;28;19963;-72
2023/01/05 14:32:31;;;;;;;;;;;18.30;99.90;;;;;;5073946;28;19991;-72
2023/01/05 14:35:01;;;;;;;;;;;18.30;99.90;;;;;;5073963;28;19904;-73
2023/01/05 14:37:27;;;;;;;;;;;18.20;99.90;;;;;;5073813;28;19905;-73
2023/01/05 14:39:54;;;;;;;;;;;18.30;99.90;;;;;;5074672;28;20003;-73
2023/01/05 14:42:42;;;;;;;;;;;18.40;99.90;;;;;;5075884;28;19912;-72
2023/01/05 14:45:21;;;;;;;;;;;18.40;99.90;;;;;;5093671;28;19958;-72
2023/01/05 14:47:48;;;;;;;;;;;18.30;99.90;;;;;;5075714;28;19951;-73
2023/01/05 14:50:29;;;;;;;;;;;18.40;99.90;;;;;;5093855;28;20356;-73
2023/01/05 14:52:54;;;;;;;;;;;18.40;99.90;;;;;;5093524;28;20291;-73
2023/01/05 14:55:26;;;;;;;;;;;18.40;99.90;;;;;;5093706;28;19941;-73
2023/01/05 14:57:54;;;;;;;;;;;18.30;99.90;;;;;;5094178;28;20045;-75